createdAt,value
2023-03-28T00:01:12.753Z,74.20
2023-03-28T00:03:40.841Z,74.50
2023-03-28T00:06:16.610Z,74.70
2023-03-28T00:08:46.221Z,75.00
2023-03-28T00:11:20.465Z,75.40
2023-03-28T00:13:58.346Z,75.40
2023-03-28T00:16:33.317Z,75.60
2023-03-28T00:19:02.730Z,75.70
2023-03-28T00:21:32.863Z,75.90
2023-03-28T00:24:03.130Z,76.10
2023-03-28T00:26:35.897Z,76.20
2023-03-28T00:29:05.516Z,75.70
2023-03-28T00:31:35.270Z,75.80
2023-03-28T00:34:03.037Z,76.20
2023-03-28T00:36:32.815Z,77.10
2023-03-28T00:39:02.049Z,77.60
2023-03-28T00:41:33.292Z,78.00
2023-03-28T00:44:04.116Z,78.60
2023-03-28T00:46:42.340Z,79.10
2023-03-28T00:49:14.113Z,79.30
2023-03-28T00:51:49.502Z,79.70
2023-03-28T00:54:20.810Z,80.00
2023-03-28T00:56:54.927Z,80.40
2023-03-28T00:59:27.098Z,80.60
2023-03-28T01:01:55.679Z,80.70
2023-03-28T01:04:25.594Z,80.90
2023-03-28T01:06:59.146Z,80.70
2023-03-28T01:09:29.292Z,81.30
2023-03-28T01:11:59.091Z,81.50
2023-03-28T01:14:29.460Z,81.60
2023-03-28T01:16:59.112Z,81.90
2023-03-28T01:19:59.230Z,81.30
2023-03-28T01:22:56.062Z,81.50
2023-03-28T01:26:19.057Z,81.30
2023-03-28T01:29:21.264Z,81.00
2023-03-28T01:32:29.064Z,80.60
2023-03-28T01:35:20.535Z,81.10
2023-03-28T01:37:57.122Z,80.60
2023-03-28T01:41:15.263Z,81.10
2023-03-28T01:44:32.351Z,81.50
2023-03-28T01:47:02.977Z,81.30
2023-03-28T01:49:37.723Z,81.20
2023-03-28T01:52:11.088Z,81.20
2023-03-28T01:54:41.457Z,81.40
2023-03-28T01:57:15.034Z,81.20
2023-03-28T01:59:48.952Z,81.50
2023-03-28T02:02:43.640Z,81.60
2023-03-28T02:05:29.585Z,82.00
2023-03-28T02:08:00.318Z,82.30
2023-03-28T02:10:42.632Z,82.90
2023-03-28T02:13:34.173Z,82.90
2023-03-28T02:16:23.503Z,83.00
2023-03-28T02:19:12.709Z,83.10
2023-03-28T02:22:27.787Z,83.80
2023-03-28T02:25:13.872Z,84.10
2023-03-28T02:28:06.772Z,84.60
2023-03-28T02:30:43.238Z,85.00
2023-03-28T02:33:33.887Z,85.60
2023-03-28T02:36:29.024Z,86.10
2023-03-28T02:39:15.147Z,86.00
2023-03-28T02:42:01.740Z,87.10
2023-03-28T02:45:04.094Z,87.30
2023-03-28T02:47:49.977Z,87.80
2023-03-28T02:50:32.187Z,87.80
2023-03-28T02:53:05.623Z,88.20
2023-03-28T02:55:45.105Z,88.40
2023-03-28T02:58:42.576Z,88.20
2023-03-28T03:01:10.705Z,89.50
2023-03-28T03:03:38.265Z,90.20
2023-03-28T03:06:08.078Z,89.40
2023-03-28T03:08:38.552Z,89.80
2023-03-28T03:11:06.539Z,90.30
2023-03-28T03:13:33.994Z,90.40
2023-03-28T03:16:03.909Z,90.40
2023-03-28T03:18:32.675Z,90.80
2023-03-28T03:21:01.888Z,90.50
2023-03-28T03:23:29.538Z,90.90
2023-03-28T03:25:59.367Z,90.90
2023-03-28T03:28:33.866Z,91.10
2023-03-28T03:31:03.973Z,91.40
2023-03-28T03:33:50.498Z,91.70
2023-03-28T03:36:22.079Z,91.70
2023-03-28T03:38:49.431Z,92.20
2023-03-28T03:41:21.450Z,92.60
2023-03-28T03:43:49.425Z,92.80
2023-03-28T03:46:16.679Z,93.10
2023-03-28T03:49:04.028Z,93.50
2023-03-28T03:51:34.258Z,93.80
2023-03-28T03:54:02.371Z,94.10
2023-03-28T03:56:37.925Z,94.50
2023-03-28T03:59:06.174Z,94.60
2023-03-28T04:01:39.526Z,94.90
2023-03-28T04:04:26.826Z,94.90
2023-03-28T04:07:13.338Z,95.50
2023-03-28T04:09:41.626Z,95.70
2023-03-28T04:12:11.567Z,95.90
2023-03-28T04:14:47.105Z,96.20
2023-03-28T04:17:41.685Z,96.40
2023-03-28T04:20:15.361Z,96.40
2023-03-28T04:23:01.207Z,96.60
2023-03-28T04:25:31.563Z,96.80
2023-03-28T04:28:05.002Z,96.90
2023-03-28T04:30:38.448Z,97.00
2023-03-28T04:33:25.737Z,97.20
2023-03-28T04:36:00.458Z,97.40
2023-03-28T04:38:32.767Z,97.40
2023-03-28T04:41:16.856Z,97.40
2023-03-28T04:44:02.364Z,97.20
2023-03-28T04:46:33.958Z,97.70
2023-03-28T04:49:09.295Z,97.90
2023-03-28T04:51:36.598Z,97.90
2023-03-28T04:54:06.209Z,97.80
2023-03-28T04:56:48.973Z,97.70
2023-03-28T04:59:26.840Z,98.20
2023-03-28T05:02:14.042Z,97.70
2023-03-28T05:04:50.709Z,97.80
2023-03-28T05:07:17.956Z,97.70
2023-03-28T05:09:45.570Z,97.40
2023-03-28T05:12:13.305Z,97.30
2023-03-28T05:14:58.626Z,97.20
2023-03-28T05:17:25.972Z,96.80
2023-03-28T05:19:59.879Z,96.50
2023-03-28T05:22:32.956Z,96.40
2023-03-28T05:25:02.831Z,95.70
2023-03-28T05:27:30.888Z,95.20
2023-03-28T05:29:58.008Z,95.50
2023-03-28T05:32:27.783Z,95.40
2023-03-28T05:34:55.581Z,95.20
2023-03-28T05:37:29.520Z,95.10
2023-03-28T05:39:58.310Z,94.80
2023-03-28T05:42:28.551Z,94.60
2023-03-28T05:44:55.966Z,94.30
2023-03-28T05:47:41.694Z,94.00
2023-03-28T05:50:11.422Z,93.50
2023-03-28T05:52:38.999Z,93.20
2023-03-28T05:55:08.392Z,92.80
2023-03-28T05:57:36.132Z,93.00
2023-03-28T06:00:25.930Z,92.90
2023-03-28T06:03:01.802Z,93.30
2023-03-28T06:05:36.506Z,93.10
2023-03-28T06:08:09.510Z,92.40
2023-03-28T06:10:37.679Z,92.30
2023-03-28T06:13:20.064Z,91.60
2023-03-28T06:15:48.685Z,91.60
2023-03-28T06:18:17.440Z,91.30
2023-03-28T06:20:47.083Z,91.00
2023-03-28T06:23:14.346Z,90.50
2023-03-28T06:25:43.829Z,90.10
2023-03-28T06:28:12.528Z,89.90
2023-03-28T06:30:59.838Z,89.80
2023-03-28T06:33:27.336Z,89.40
2023-03-28T06:35:55.328Z,88.70
2023-03-28T06:38:24.164Z,88.40
2023-03-28T06:40:54.038Z,88.90
2023-03-28T06:43:21.248Z,87.60
2023-03-28T06:46:05.626Z,87.20
2023-03-28T06:48:36.235Z,87.50
2023-03-28T06:51:22.683Z,86.90
2023-03-28T06:53:49.843Z,86.20
2023-03-28T06:56:21.757Z,85.80
2023-03-28T06:58:49.214Z,85.20
2023-03-28T07:01:20.189Z,85.50
2023-03-28T07:04:03.975Z,85.30
2023-03-28T07:06:31.318Z,84.60
2023-03-28T07:08:58.950Z,84.60
2023-03-28T07:11:36.976Z,83.00
2023-03-28T07:14:04.341Z,82.60
2023-03-28T07:16:32.184Z,83.40
2023-03-28T07:18:59.604Z,82.60
2023-03-28T07:21:32.472Z,82.10
2023-03-28T07:24:02.033Z,82.60
2023-03-28T07:26:36.801Z,81.60
2023-03-28T07:29:05.426Z,81.60
2023-03-28T07:31:32.950Z,81.50
2023-03-28T07:34:00.353Z,81.70
2023-03-28T07:36:29.269Z,81.30
2023-03-28T07:39:05.118Z,79.80
2023-03-28T07:41:33.387Z,80.90
2023-03-28T07:44:00.488Z,80.20
2023-03-28T07:46:28.431Z,81.00
2023-03-28T07:48:56.890Z,80.30
2023-03-28T07:51:24.454Z,79.10
2023-03-28T07:53:52.039Z,78.20
2023-03-28T07:56:19.461Z,78.20
2023-03-28T07:59:07.435Z,78.20
2023-03-28T08:01:34.821Z,79.60
2023-03-28T08:04:03.786Z,79.70
2023-03-28T08:06:52.286Z,81.00
2023-03-28T08:09:20.256Z,81.70
2023-03-28T08:11:50.062Z,80.80
2023-03-28T08:14:18.811Z,80.90
2023-03-28T08:16:46.595Z,82.00
2023-03-28T08:19:14.742Z,82.80
2023-03-28T08:22:07.891Z,81.20
2023-03-28T08:24:43.957Z,79.30
2023-03-28T08:27:14.125Z,79.80
2023-03-28T08:29:44.277Z,80.70
2023-03-28T08:32:11.841Z,79.90
2023-03-28T08:34:40.662Z,79.50
2023-03-28T08:37:22.019Z,79.10
2023-03-28T08:39:50.549Z,79.50
2023-03-28T08:42:39.207Z,80.50
2023-03-28T08:45:39.315Z,79.10
2023-03-28T08:48:16.403Z,77.70
2023-03-28T08:50:59.833Z,77.10
2023-03-28T08:53:39.099Z,77.80
2023-03-28T08:56:08.620Z,77.90
2023-03-28T08:59:16.782Z,78.10
2023-03-28T09:01:45.080Z,77.70
2023-03-28T09:04:35.579Z,78.00
2023-03-28T09:07:38.607Z,77.10
2023-03-28T09:10:19.331Z,75.70
2023-03-28T09:13:12.041Z,74.90
2023-03-28T09:16:00.040Z,75.00
2023-03-28T09:19:00.628Z,72.90
2023-03-28T09:21:41.876Z,70.80
2023-03-28T09:24:12.733Z,71.20
2023-03-28T09:27:21.524Z,70.90
2023-03-28T09:29:51.492Z,71.50
2023-03-28T09:32:24.615Z,68.60
2023-03-28T09:34:52.181Z,67.90
2023-03-28T09:37:29.139Z,69.00
2023-03-28T09:40:01.840Z,68.90
2023-03-28T09:42:48.460Z,67.70
2023-03-28T09:45:37.314Z,66.30
2023-03-28T09:48:33.608Z,65.00
2023-03-28T09:51:07.216Z,63.30
2023-03-28T09:53:37.362Z,62.70
2023-03-28T09:56:27.589Z,62.90
2023-03-28T09:59:04.390Z,62.80
2023-03-28T10:01:47.182Z,64.30
2023-03-28T10:04:46.737Z,65.80
2023-03-28T10:07:42.486Z,64.20
2023-03-28T10:10:28.896Z,64.90
2023-03-28T10:13:11.938Z,64.70
2023-03-28T10:15:45.956Z,64.70
2023-03-28T10:18:32.514Z,63.70
2023-03-28T10:21:24.745Z,62.00
2023-03-28T10:24:13.171Z,63.30
2023-03-28T10:27:28.501Z,63.40
2023-03-28T10:29:57.474Z,62.60
2023-03-28T10:32:31.654Z,61.80
2023-03-28T10:35:31.119Z,62.70
2023-03-28T10:38:20.252Z,61.90
2023-03-28T10:41:31.686Z,61.10
2023-03-28T10:44:27.271Z,60.00
2023-03-28T10:47:05.432Z,60.30
2023-03-28T10:50:00.211Z,59.90
2023-03-28T10:52:40.680Z,61.00
2023-03-28T10:55:20.038Z,61.60
2023-03-28T10:58:37.474Z,61.30
2023-03-28T11:01:21.139Z,60.40
2023-03-28T11:04:16.456Z,59.70
2023-03-28T11:07:12.785Z,60.90
2023-03-28T11:10:44.346Z,61.50
2023-03-28T11:13:34.142Z,60.10
2023-03-28T11:16:11.302Z,61.00
2023-03-28T11:19:29.869Z,61.90
2023-03-28T11:22:13.073Z,60.50
2023-03-28T11:24:48.388Z,58.60
2023-03-28T11:27:47.197Z,58.70
2023-03-28T11:30:35.425Z,59.10
2023-03-28T11:33:30.722Z,59.60
2023-03-28T11:36:14.404Z,59.10
2023-03-28T11:38:52.569Z,59.50
2023-03-28T11:41:27.154Z,59.60
2023-03-28T11:44:31.554Z,59.60
2023-03-28T11:47:16.304Z,59.20
2023-03-28T11:50:05.202Z,58.50
2023-03-28T11:53:27.743Z,59.60
2023-03-28T11:56:04.362Z,59.70
2023-03-28T11:59:27.608Z,58.80
2023-03-28T12:02:02.452Z,56.10
2023-03-28T12:04:42.827Z,55.70
2023-03-28T12:07:25.682Z,54.90
2023-03-28T12:10:20.916Z,52.90
2023-03-28T12:12:50.979Z,54.80
2023-03-28T12:15:27.524Z,54.20
2023-03-28T12:18:46.328Z,53.80
2023-03-28T12:21:35.802Z,53.60
2023-03-28T12:24:25.035Z,51.00
2023-03-28T12:27:18.164Z,52.10
2023-03-28T12:30:07.322Z,53.30
2023-03-28T12:32:43.094Z,53.50
2023-03-28T12:35:48.529Z,53.10
2023-03-28T12:38:31.059Z,52.90
2023-03-28T12:41:41.668Z,51.30
2023-03-28T12:44:19.773Z,50.80
2023-03-28T12:46:57.997Z,48.40
2023-03-28T12:49:47.911Z,51.20
2023-03-28T12:52:38.951Z,48.70
2023-03-28T12:55:26.358Z,48.80
2023-03-28T12:58:30.327Z,49.60
2023-03-28T13:01:09.817Z,47.50
2023-03-28T13:03:55.234Z,48.00
2023-03-28T13:06:42.350Z,46.10
2023-03-28T13:09:51.901Z,46.60
2023-03-28T13:12:24.814Z,45.80
2023-03-28T13:15:16.350Z,45.40
2023-03-28T13:18:08.568Z,45.60
2023-03-28T13:20:50.507Z,45.40
2023-03-28T13:23:19.572Z,46.80
2023-03-28T13:26:04.794Z,46.30
2023-03-28T13:28:47.703Z,46.10
2023-03-28T13:31:18.316Z,46.30
2023-03-28T13:33:49.281Z,48.00
2023-03-28T13:36:22.817Z,48.40
2023-03-28T13:39:00.858Z,48.20
2023-03-28T13:41:42.380Z,48.90
2023-03-28T13:44:20.344Z,49.10
2023-03-28T13:46:53.019Z,49.00
2023-03-28T13:49:24.191Z,49.20
2023-03-28T13:52:04.991Z,49.10
2023-03-28T13:54:32.822Z,49.70
2023-03-28T13:57:08.599Z,54.30
2023-03-28T13:59:49.339Z,60.00
2023-03-28T14:02:19.530Z,63.10
2023-03-28T14:05:03.528Z,64.70
2023-03-28T14:07:31.040Z,65.40
2023-03-28T14:09:58.430Z,63.20
2023-03-28T14:12:29.581Z,60.40
2023-03-28T14:15:01.488Z,59.30
2023-03-28T14:17:34.090Z,59.00
2023-03-28T14:20:08.042Z,59.80
2023-03-28T14:22:49.316Z,58.80
2023-03-28T14:25:27.614Z,59.10
2023-03-28T14:27:57.600Z,58.20
2023-03-28T14:30:37.948Z,57.10
2023-03-28T14:33:26.128Z,55.40
2023-03-28T14:36:11.912Z,55.90
2023-03-28T14:38:41.400Z,55.50
2023-03-28T14:41:21.741Z,55.60
2023-03-28T14:44:07.312Z,55.80
2023-03-28T14:46:34.818Z,55.90
2023-03-28T14:49:10.206Z,55.50
2023-03-28T14:52:06.477Z,55.80
2023-03-28T14:54:37.856Z,55.20
2023-03-28T14:57:05.830Z,55.40
2023-03-28T14:59:40.877Z,55.30
2023-03-28T15:02:17.845Z,55.90
2023-03-28T15:04:48.370Z,52.90
2023-03-28T15:07:26.562Z,52.00
2023-03-28T15:10:07.886Z,51.30
2023-03-28T15:12:42.844Z,51.80
2023-03-28T15:15:28.188Z,50.90
2023-03-28T15:17:58.560Z,50.20
2023-03-28T15:20:35.142Z,50.30
2023-03-28T15:23:05.954Z,50.30
2023-03-28T15:25:34.611Z,50.80
2023-03-28T15:28:05.046Z,51.80
2023-03-28T15:30:35.909Z,53.10
2023-03-28T15:33:05.968Z,53.90
2023-03-28T15:35:39.514Z,54.60
2023-03-28T15:38:12.831Z,55.30
2023-03-28T15:40:43.156Z,54.50
2023-03-28T15:43:32.107Z,55.70
2023-03-28T15:46:11.958Z,55.80
2023-03-28T15:48:41.091Z,56.10
2023-03-28T15:51:19.124Z,57.20
2023-03-28T15:53:48.024Z,57.10
2023-03-28T15:56:27.832Z,56.70
2023-03-28T15:59:01.482Z,61.10
2023-03-28T16:01:31.969Z,64.60
2023-03-28T16:04:29.015Z,64.10
2023-03-28T16:07:13.917Z,65.20
2023-03-28T16:09:44.247Z,66.80
2023-03-28T16:12:15.648Z,65.20
2023-03-28T16:14:47.189Z,61.90
2023-03-28T16:17:37.936Z,60.80
2023-03-28T16:20:19.789Z,61.10
2023-03-28T16:22:47.926Z,59.20
2023-03-28T16:25:15.105Z,57.70
2023-03-28T16:27:42.914Z,55.80
2023-03-28T16:30:30.807Z,55.00
2023-03-28T16:32:58.921Z,56.40
2023-03-28T16:35:28.546Z,56.60
2023-03-28T16:37:56.780Z,57.70
2023-03-28T16:40:24.175Z,58.40
2023-03-28T16:42:51.549Z,58.80
2023-03-28T16:45:20.582Z,58.90
2023-03-28T16:47:48.144Z,60.00
2023-03-28T16:50:16.472Z,60.00
2023-03-28T16:52:43.651Z,60.60
2023-03-28T16:55:13.429Z,60.20
2023-03-28T16:57:42.087Z,60.50
2023-03-28T17:00:14.422Z,61.10
2023-03-28T17:02:42.317Z,61.10
2023-03-28T17:05:09.901Z,61.10
2023-03-28T17:07:37.277Z,61.60
2023-03-28T17:10:08.660Z,62.50
2023-03-28T17:12:37.466Z,63.10
2023-03-28T17:15:06.991Z,63.70
2023-03-28T17:17:34.675Z,64.20
2023-03-28T17:20:02.477Z,64.50
2023-03-28T17:22:30.569Z,65.20
2023-03-28T17:24:58.681Z,64.70
2023-03-28T17:27:25.985Z,65.20
2023-03-28T17:29:53.389Z,65.60
2023-03-28T17:32:22.530Z,65.90
2023-03-28T17:34:50.199Z,66.70
2023-03-28T17:37:20.405Z,67.60
2023-03-28T17:39:50.093Z,68.10
2023-03-28T17:42:18.039Z,68.50
2023-03-28T17:44:45.501Z,69.40
2023-03-28T17:47:13.233Z,70.00
2023-03-28T17:49:42.681Z,70.40
2023-03-28T17:52:10.794Z,70.50
2023-03-28T17:54:39.033Z,71.00
2023-03-28T17:57:09.158Z,71.20
2023-03-28T17:59:40.953Z,71.30
2023-03-28T18:02:12.358Z,71.40
2023-03-28T18:04:40.168Z,71.30
2023-03-28T18:07:17.663Z,71.20
2023-03-28T18:09:49.470Z,71.50
2023-03-28T18:12:17.996Z,71.60
2023-03-28T18:14:46.483Z,71.90
2023-03-28T18:17:14.536Z,72.40
2023-03-28T18:19:42.735Z,72.70
2023-03-28T18:22:10.702Z,72.80
2023-03-28T18:24:38.488Z,72.40
2023-03-28T18:27:06.598Z,71.80
2023-03-28T18:29:34.741Z,72.00
2023-03-28T18:32:03.326Z,72.10
2023-03-28T18:34:32.861Z,71.10
2023-03-28T18:37:02.034Z,70.90
2023-03-28T18:39:32.262Z,71.50
2023-03-28T18:42:01.049Z,71.20
2023-03-28T18:44:29.204Z,71.00
2023-03-28T18:46:58.985Z,70.80
2023-03-28T18:49:31.698Z,70.50
2023-03-28T18:52:05.814Z,70.80
2023-03-28T18:54:36.567Z,71.10
2023-03-28T18:57:07.235Z,70.40
2023-03-28T18:59:35.478Z,70.20
2023-03-28T19:02:03.953Z,70.20
2023-03-28T19:04:32.944Z,70.10
2023-03-28T19:07:01.181Z,69.90
2023-03-28T19:09:29.410Z,70.10
2023-03-28T19:11:57.694Z,69.10
2023-03-28T19:14:28.375Z,69.20
2023-03-28T19:16:56.963Z,69.00
2023-03-28T19:19:26.285Z,68.80
2023-03-28T19:21:54.783Z,68.60
2023-03-28T19:24:23.899Z,68.40
2023-03-28T19:26:53.825Z,68.80
2023-03-28T19:29:22.981Z,68.70
2023-03-28T19:31:52.136Z,68.30
2023-03-28T19:34:22.097Z,68.40
2023-03-28T19:36:50.143Z,68.30
2023-03-28T19:39:18.376Z,68.50
2023-03-28T19:41:46.669Z,68.40
2023-03-28T19:44:15.182Z,68.50
2023-03-28T19:46:43.553Z,68.70
2023-03-28T19:49:12.052Z,68.40
2023-03-28T19:51:40.379Z,68.70
2023-03-28T19:54:08.528Z,68.60
2023-03-28T19:56:36.800Z,68.70
2023-03-28T19:59:04.793Z,68.70
2023-03-28T20:01:32.891Z,68.80
2023-03-28T20:04:02.724Z,69.00
2023-03-28T20:06:31.430Z,69.40
2023-03-28T20:08:59.678Z,69.30
2023-03-28T20:11:28.015Z,69.30
2023-03-28T20:13:56.338Z,69.30
2023-03-28T20:16:27.321Z,69.30
2023-03-28T20:18:56.915Z,69.70
2023-03-28T20:21:24.600Z,70.00
2023-03-28T20:23:59.127Z,69.90
2023-03-28T20:26:28.404Z,70.00
2023-03-28T20:28:59.628Z,69.50
2023-03-28T20:31:28.600Z,69.30
2023-03-28T20:33:56.681Z,69.20
2023-03-28T20:36:24.437Z,69.30
2023-03-28T20:38:55.081Z,69.40
2023-03-28T20:41:22.208Z,69.50
2023-03-28T20:43:50.366Z,69.70
2023-03-28T20:46:19.380Z,69.40
2023-03-28T20:48:52.819Z,69.50
2023-03-28T20:51:22.996Z,69.50
2023-03-28T20:53:54.703Z,69.50
2023-03-28T20:56:23.946Z,69.70
2023-03-28T20:58:53.207Z,69.40
2023-03-28T21:01:28.111Z,69.10
2023-03-28T21:03:58.888Z,68.90
2023-03-28T21:06:33.653Z,69.10
2023-03-28T21:09:02.747Z,69.00
2023-03-28T21:11:32.545Z,69.10
2023-03-28T21:14:00.452Z,69.30
2023-03-28T21:16:29.037Z,69.10
2023-03-28T21:18:56.585Z,69.10
2023-03-28T21:21:24.343Z,69.90
2023-03-28T21:23:53.306Z,69.70
2023-03-28T21:26:23.040Z,69.30
2023-03-28T21:28:52.608Z,69.60
2023-03-28T21:31:24.205Z,69.40
2023-03-28T21:33:53.221Z,69.70
2023-03-28T21:36:20.784Z,69.40
2023-03-28T21:38:48.726Z,69.70
2023-03-28T21:41:16.773Z,70.20
2023-03-28T21:43:44.163Z,70.50
2023-03-28T21:46:11.795Z,70.70
2023-03-28T21:48:39.385Z,71.00
2023-03-28T21:51:06.889Z,71.10
2023-03-28T21:53:36.598Z,71.70
2023-03-28T21:56:06.843Z,71.30
2023-03-28T21:58:35.151Z,71.20
2023-03-28T22:01:04.158Z,71.50
2023-03-28T22:03:31.732Z,71.60
2023-03-28T22:05:59.073Z,71.50
2023-03-28T22:08:26.284Z,71.80
2023-03-28T22:10:58.570Z,71.60
2023-03-28T22:13:29.090Z,71.70
2023-03-28T22:16:00.332Z,71.30
2023-03-28T22:18:28.155Z,71.30
2023-03-28T22:20:55.615Z,71.30
2023-03-28T22:23:24.445Z,71.80
2023-03-28T22:25:53.261Z,72.00
2023-03-28T22:28:24.589Z,72.20
2023-03-28T22:30:56.861Z,71.90
2023-03-28T22:33:25.446Z,71.50
2023-03-28T22:35:53.219Z,71.20
2023-03-28T22:38:20.485Z,71.10
2023-03-28T22:40:47.851Z,70.80
2023-03-28T22:43:16.226Z,71.00
2023-03-28T22:45:43.562Z,70.50
2023-03-28T22:48:17.259Z,70.50
2023-03-28T22:50:44.806Z,70.60
2023-03-28T22:53:12.938Z,69.80
2023-03-28T22:55:41.913Z,69.70
2023-03-28T22:58:08.999Z,69.60
2023-03-28T23:00:36.382Z,69.10
2023-03-28T23:03:04.060Z,69.30
2023-03-28T23:05:31.316Z,69.20
2023-03-28T23:08:00.171Z,69.50
2023-03-28T23:10:27.475Z,69.70
2023-03-28T23:12:54.596Z,70.00
2023-03-28T23:15:21.727Z,70.30
2023-03-28T23:17:49.004Z,70.10
2023-03-28T23:20:17.168Z,70.80
2023-03-28T23:22:46.436Z,71.00
2023-03-28T23:25:15.965Z,70.80
2023-03-28T23:27:43.684Z,71.00
2023-03-28T23:30:13.841Z,70.60
2023-03-28T23:32:41.026Z,70.90
2023-03-28T23:35:10.662Z,71.40
2023-03-28T23:37:39.307Z,71.40
2023-03-28T23:40:12.811Z,71.70
2023-03-28T23:42:42.885Z,71.70
2023-03-28T23:45:11.550Z,72.00
2023-03-28T23:47:38.874Z,72.20
2023-03-28T23:50:06.865Z,72.30
2023-03-28T23:52:33.922Z,72.40
2023-03-28T23:55:01.574Z,72.50
2023-03-28T23:57:29.395Z,72.60
2023-03-28T23:59:56.888Z,73.00
